KCRP/CRP METAR and TAF weather

Enter ICAO airport designator
Station Type Date Time Source
KCRP METAR 2021/02/27 21:51 UTC NOAA

KCRP 272151Z 14017KT 10SM BKN014 BKN024 BKN055 OVC250 24/21 A2980 RMK AO2 PK WND 14026/2104 SLP090 T02440206 $


Station Type Date Time Source
KCRP Decoded METAR 2021/02/27 21:51 UTC NOAA

CORPUS CHRISTI INTERNATIONAL , TX, United States (KCRP) 27-46N 97-31W 16M
Feb 27, 2021 - 04:51 PM EST / 2021.02.27 2151 UTC
Wind: from the SE (140 degrees) at 20 MPH (17 KT):0
Visibility: 10 mile(s):0
Sky conditions: overcast
Temperature: 75.9 F (24.4 C)
Dew Point: 69.1 F (20.6 C)
Relative Humidity: 79%
Pressure (altimeter): 29.8 in. Hg (1009 hPa)
ob: KCRP 272151Z 14017KT 10SM BKN014 BKN024 BKN055 OVC250 24/21 A2980 RMK AO2 PK WND 14026/2104 SLP090 T02440206
cycle: 22

Station Type Date Time Source
KCRP TAF 2021/02/27 18:36 UTC NOAA

TAF KCRP 271734Z 2718/2818 16020G29KT P6SM BKN022 OVC035
FM272000 15020G29KT P6SM SCT025 BKN035 OVC200
FM280100 15015KT P6SM BKN006 OVC015
FM280700 16012KT 5SM BR OVC005
FM281400 17016G22KT P6SM BKN012 OVC025

Example: see airport list